Time;durP1;ratioP1;P1;durP2;ratioP2;P2;SDS_P1;SDS_P2;PMS_P1;PMS_P2;Temp;Humidity;BMP_temperature;BMP_pressure;BME280_temperature;BME280_humidity;BME280_pressure;Samples;Min_cycle;Max_cycle;Signal;HPM_P1;HPM_P2
2022/02/22 00:00:20;;;;;;;12.98;3.33;;;2.90;98.00;;;;;;5032657;28;20292;-69
2022/02/22 00:02:47;;;;;;;10.45;2.58;;;3.00;98.00;;;;;;5033991;28;20048;-68
2022/02/22 00:05:15;;;;;;;13.75;3.35;;;3.00;98.00;;;;;;5028238;28;20025;-68
2022/02/22 00:07:41;;;;;;;18.17;4.05;;;3.00;98.00;;;;;;5033389;28;20120;-68
2022/02/22 00:10:09;;;;;;;17.52;3.25;;;3.00;98.00;;;;;;5035271;28;20035;-69
2022/02/22 00:12:35;;;;;;;13.75;2.88;;;3.00;98.00;;;;;;5031651;28;20423;-68
2022/02/22 00:15:02;;;;;;;13.43;3.00;;;3.00;98.00;;;;;;5032176;28;20030;-68
2022/02/22 00:17:33;;;;;;;14.68;2.70;;;3.00;98.00;;;;;;5036673;28;20017;-68
2022/02/22 00:20:01;;;;;;;11.48;2.78;;;3.00;98.00;;;;;;5030593;28;20105;-67
2022/02/22 00:22:27;;;;;;;10.75;2.80;;;3.00;98.00;;;;;;5030113;28;20052;-68
2022/02/22 00:24:53;;;;;;;15.35;3.20;;;3.00;98.00;;;;;;5054720;22;20351;-68
2022/02/22 00:27:19;;;;;;;8.40;2.40;;;3.00;98.00;;;;;;5040081;28;20037;-68
2022/02/22 00:29:45;;;;;;;8.48;2.47;;;3.00;98.00;;;;;;5032221;28;20031;-68
2022/02/22 00:32:11;;;;;;;11.23;2.95;;;3.00;98.00;;;;;;5027256;28;20043;-68
2022/02/22 00:34:36;;;;;;;8.18;2.38;;;3.00;98.00;;;;;;5035316;28;20096;-68
2022/02/22 00:37:03;;;;;;;13.93;2.85;;;3.00;98.00;;;;;;5037277;28;20060;-68
2022/02/22 00:39:28;;;;;;;9.52;2.80;;;3.00;98.00;;;;;;5035166;28;20021;-68
2022/02/22 00:41:58;;;;;;;12.40;3.08;;;3.00;98.00;;;;;;5035777;28;20318;-68
2022/02/22 00:44:27;;;;;;;11.93;2.95;;;3.00;98.00;;;;;;5030818;28;20108;-68
2022/02/22 00:46:53;;;;;;;10.88;2.95;;;3.00;98.00;;;;;;5035318;28;20041;-68
2022/02/22 00:49:19;;;;;;;14.55;3.28;;;3.00;98.00;;;;;;5028458;28;20028;-68
2022/02/22 00:51:44;;;;;;;7.80;2.22;;;3.00;98.00;;;;;;5048041;28;20021;-68
2022/02/22 00:54:10;;;;;;;9.98;2.50;;;3.00;98.00;;;;;;5034605;28;20571;-68
2022/02/22 00:56:37;;;;;;;13.52;3.25;;;3.00;98.00;;;;;;5035333;28;20029;-68
2022/02/22 00:59:03;;;;;;;9.38;2.30;;;3.10;98.00;;;;;;5032620;28;20402;-68
2022/02/22 01:01:29;;;;;;;10.32;2.42;;;3.10;98.00;;;;;;5033415;28;20081;-67
2022/02/22 01:03:58;;;;;;;13.23;2.60;;;3.20;98.00;;;;;;5035232;28;20512;-68
2022/02/22 01:06:24;;;;;;;7.32;2.45;;;3.20;98.00;;;;;;5034461;28;20030;-68
2022/02/22 01:08:50;;;;;;;11.18;3.25;;;3.20;98.00;;;;;;5033209;28;20026;-67
2022/02/22 01:11:18;;;;;;;12.10;2.20;;;3.20;98.00;;;;;;5033531;28;20033;-67
2022/02/22 01:13:44;;;;;;;13.38;3.00;;;3.20;98.00;;;;;;5031521;28;20018;-67
2022/02/22 01:16:10;;;;;;;11.35;3.03;;;3.20;98.00;;;;;;5032832;28;20032;-68
2022/02/22 01:18:36;;;;;;;10.13;2.60;;;3.20;98.00;;;;;;5035054;28;20105;-68
2022/02/22 01:21:02;;;;;;;14.38;3.17;;;3.10;98.00;;;;;;5033980;28;20108;-68
2022/02/22 01:23:27;;;;;;;8.38;2.30;;;3.10;98.00;;;;;;5033420;28;20445;-67
2022/02/22 01:25:56;;;;;;;13.23;3.00;;;3.10;98.00;;;;;;5033349;28;20083;-67
2022/02/22 01:28:22;;;;;;;5.07;2.15;;;3.10;98.00;;;;;;5032400;28;20021;-67
2022/02/22 01:30:48;;;;;;;12.93;2.63;;;3.10;98.00;;;;;;5033486;28;20029;-67
2022/02/22 01:33:14;;;;;;;7.20;2.08;;;3.10;98.00;;;;;;5036309;28;20033;-68
2022/02/22 01:35:40;;;;;;;12.00;2.50;;;3.10;98.00;;;;;;5037185;28;20101;-67
2022/02/22 01:38:06;;;;;;;8.30;2.17;;;3.20;98.00;;;;;;5033886;28;20414;-67
2022/02/22 01:40:32;;;;;;;7.68;2.25;;;3.20;98.00;;;;;;5037726;28;20379;-68
2022/02/22 01:42:59;;;;;;;7.43;2.22;;;3.10;98.00;;;;;;5034541;28;20038;-67
2022/02/22 01:45:28;;;;;;;9.80;2.40;;;3.20;98.00;;;;;;5036620;28;20021;-67
2022/02/22 01:47:54;;;;;;;9.52;2.30;;;3.20;98.00;;;;;;5037603;28;20100;-68
2022/02/22 01:50:20;;;;;;;14.10;2.88;;;3.20;98.00;;;;;;5037395;28;20025;-67
2022/02/22 01:52:46;;;;;;;8.88;2.47;;;3.10;98.00;;;;;;5037177;28;20025;-68
2022/02/22 01:55:12;;;;;;;13.00;2.65;;;3.00;98.00;;;;;;5035821;28;20025;-67
2022/02/22 01:57:38;;;;;;;7.82;3.28;;;3.00;98.00;;;;;;5034467;28;20033;-68
2022/02/22 02:00:09;;;;;;;10.32;2.78;;;3.00;98.00;;;;;;5033992;28;20322;-67
2022/02/22 02:02:39;;;;;;;10.00;2.50;;;3.00;98.00;;;;;;5035968;28;20029;-67
2022/02/22 02:05:06;;;;;;;12.27;4.13;;;3.00;98.00;;;;;;5039033;28;20076;-67
2022/02/22 02:07:32;;;;;;;12.35;3.05;;;3.00;98.00;;;;;;5040526;28;20397;-68
2022/02/22 02:09:58;;;;;;;11.20;3.28;;;2.90;98.00;;;;;;5035473;28;20079;-67
2022/02/22 02:12:24;;;;;;;12.40;2.75;;;2.80;98.00;;;;;;5035913;28;20038;-68
2022/02/22 02:14:50;;;;;;;9.40;3.28;;;2.70;98.00;;;;;;5039908;28;20028;-68
2022/02/22 02:17:16;;;;;;;10.68;3.20;;;2.60;97.60;;;;;;5036522;28;20032;-67
2022/02/22 02:19:42;;;;;;;10.00;2.90;;;2.40;97.60;;;;;;5036855;28;20026;-67
2022/02/22 02:22:08;;;;;;;11.10;4.32;;;2.30;96.60;;;;;;5036499;28;20082;-68
2022/02/22 02:24:34;;;;;;;11.92;3.48;;;2.20;95.50;;;;;;4990631;28;1318575;-68
2022/02/22 02:27:00;;;;;;;9.95;3.92;;;2.20;95.60;;;;;;5037418;28;20060;-68
2022/02/22 02:29:28;;;;;;;10.95;3.33;;;2.10;95.20;;;;;;5036954;28;20049;-67
2022/02/22 02:31:55;;;;;;;13.27;3.63;;;2.10;94.70;;;;;;5037793;28;20180;-67
2022/02/22 02:34:24;;;;;;;11.57;3.53;;;2.10;95.00;;;;;;5033237;28;20025;-68
2022/02/22 02:36:50;;;;;;;13.43;3.10;;;2.00;94.90;;;;;;5037821;28;20473;-67
2022/02/22 02:39:16;;;;;;;12.23;3.63;;;1.90;94.60;;;;;;5038404;28;20034;-67
2022/02/22 02:41:44;;;;;;;11.85;4.00;;;1.90;94.60;;;;;;5048147;28;20018;-68
2022/02/22 02:44:13;;;;;;;11.85;4.72;;;1.90;94.70;;;;;;5029090;28;20417;-67
2022/02/22 02:46:41;;;;;;;10.73;3.55;;;1.80;94.50;;;;;;5031653;28;20083;-67
2022/02/22 02:49:09;;;;;;;8.38;2.90;;;1.80;94.70;;;;;;5031169;28;20033;-68
2022/02/22 02:51:35;;;;;;;9.25;2.83;;;1.70;94.90;;;;;;5031748;28;20032;-68
2022/02/22 02:54:04;;;;;;;12.27;4.05;;;1.80;95.50;;;;;;5031391;28;20033;-67
2022/02/22 02:56:29;;;;;;;14.20;4.18;;;1.70;95.70;;;;;;5031288;28;20398;-68
2022/02/22 02:58:57;;;;;;;11.85;3.65;;;1.70;95.70;;;;;;5030329;28;20083;-67
2022/02/22 03:01:28;;;;;;;10.50;2.90;;;1.70;96.20;;;;;;5029433;28;20422;-67
2022/02/22 03:03:54;;;;;;;13.75;3.17;;;1.70;96.30;;;;;;5031176;28;20321;-68
2022/02/22 03:06:21;;;;;;;13.23;3.08;;;1.70;96.80;;;;;;5030864;28;20422;-67
2022/02/22 03:08:48;;;;;;;8.30;3.05;;;1.70;96.70;;;;;;5031423;28;20700;-67
2022/02/22 03:11:14;;;;;;;11.75;2.92;;;1.60;96.80;;;;;;5035639;28;20038;-67
2022/02/22 03:13:41;;;;;;;15.07;3.58;;;1.50;96.90;;;;;;5035526;28;20071;-67
2022/02/22 03:16:10;;;;;;;14.43;3.13;;;1.50;97.00;;;;;;5037014;28;20026;-67
2022/02/22 03:18:37;;;;;;;8.38;3.08;;;1.40;96.80;;;;;;5037339;28;20318;-67
2022/02/22 03:21:03;;;;;;;14.23;3.10;;;1.40;97.00;;;;;;5036115;28;20068;-67
2022/02/22 03:23:29;;;;;;;12.60;3.13;;;1.30;97.10;;;;;;5035819;28;20044;-67
2022/02/22 03:25:55;;;;;;;12.73;4.03;;;1.20;97.20;;;;;;5051558;28;20049;-68
2022/02/22 03:28:21;;;;;;;8.15;2.88;;;1.10;96.70;;;;;;5033317;28;20030;-66
2022/02/22 03:30:48;;;;;;;10.88;2.90;;;1.20;97.00;;;;;;5036219;28;20025;-68
2022/02/22 03:33:17;;;;;;;11.88;3.38;;;1.10;97.10;;;;;;5034230;28;20029;-68
2022/02/22 03:35:46;;;;;;;11.57;3.38;;;1.20;97.30;;;;;;5033962;28;20032;-68
2022/02/22 03:38:12;;;;;;;9.30;2.88;;;1.20;97.60;;;;;;5045873;28;20029;-68
2022/02/22 03:40:39;;;;;;;16.42;3.50;;;1.30;98.00;;;;;;5036487;28;20026;-67
2022/02/22 03:43:05;;;;;;;9.25;3.05;;;1.20;98.00;;;;;;5031786;28;20083;-68
2022/02/22 03:45:32;;;;;;;15.68;3.15;;;1.20;98.00;;;;;;5036701;28;20033;-67
2022/02/22 03:47:59;;;;;;;13.32;3.15;;;1.10;97.60;;;;;;5035295;28;20064;-68
2022/02/22 03:50:25;;;;;;;10.88;3.47;;;1.10;96.70;;;;;;5035184;28;20738;-68
2022/02/22 03:52:52;;;;;;;9.90;3.58;;;1.20;97.40;;;;;;5034860;28;20125;-68
2022/02/22 03:55:22;;;;;;;11.82;3.20;;;1.20;97.30;;;;;;5039098;28;20022;-68
2022/02/22 03:57:48;;;;;;;12.45;2.83;;;1.20;97.30;;;;;;5035345;28;20100;-68
2022/02/22 04:00:20;;;;;;;10.13;2.92;;;1.30;97.20;;;;;;5032614;28;20067;-68
2022/02/22 04:02:47;;;;;;;14.32;3.40;;;1.40;97.70;;;;;;5036030;28;20120;-67
2022/02/22 04:05:15;;;;;;;11.85;3.67;;;1.50;98.00;;;;;;5035888;28;20021;-68
2022/02/22 04:07:42;;;;;;;10.35;3.33;;;1.60;98.00;;;;;;5038892;28;20088;-67
2022/02/22 04:10:10;;;;;;;9.35;2.60;;;1.60;98.00;;;;;;5032318;28;20048;-68
2022/02/22 04:12:36;;;;;;;12.77;3.30;;;1.50;98.00;;;;;;5034131;28;20030;-67
2022/02/22 04:15:05;;;;;;;9.43;2.90;;;1.60;98.00;;;;;;5027850;28;20426;-68
2022/02/22 04:17:31;;;;;;;10.77;2.78;;;1.60;98.00;;;;;;5033584;28;20441;-69
2022/02/22 04:19:58;;;;;;;11.50;3.63;;;1.60;98.00;;;;;;5031417;28;20033;-68
2022/02/22 04:22:23;;;;;;;8.88;3.03;;;1.60;98.00;;;;;;5037850;28;20041;-67
2022/02/22 04:24:49;;;;;;;12.93;4.07;;;1.60;98.00;;;;;;5031879;28;20433;-68
2022/02/22 04:27:15;;;;;;;9.75;3.20;;;1.60;98.00;;;;;;5033009;28;20033;-67
2022/02/22 04:29:41;;;;;;;11.35;3.22;;;1.50;97.40;;;;;;5030418;28;20033;-68
2022/02/22 04:32:07;;;;;;;10.25;3.20;;;1.40;97.10;;;;;;5035298;28;20357;-67
2022/02/22 04:34:33;;;;;;;8.93;3.47;;;1.40;96.90;;;;;;5035490;28;20032;-68
2022/02/22 04:36:59;;;;;;;12.27;4.78;;;1.50;97.00;;;;;;5035717;28;20029;-68
2022/02/22 04:39:25;;;;;;;8.65;3.00;;;1.40;96.90;;;;;;5035923;28;20021;-68
2022/02/22 04:41:50;;;;;;;8.98;3.70;;;1.30;96.40;;;;;;5035235;28;20048;-68
2022/02/22 04:44:17;;;;;;;8.80;3.65;;;1.30;96.00;;;;;;5031107;28;20056;-67
2022/02/22 04:46:43;;;;;;;8.30;3.20;;;1.30;95.60;;;;;;5034113;28;20079;-68
2022/02/22 04:49:09;;;;;;;12.15;3.85;;;1.40;95.40;;;;;;5031358;28;20021;-68
2022/02/22 04:51:40;;;;;;;11.23;3.83;;;1.40;95.50;;;;;;5033815;28;20337;-68
2022/02/22 04:54:06;;;;;;;15.23;4.70;;;1.30;95.60;;;;;;5030621;28;20022;-67
2022/02/22 04:56:32;;;;;;;18.63;6.03;;;1.30;95.10;;;;;;5041397;28;20093;-67
2022/02/22 04:58:59;;;;;;;13.85;5.45;;;1.30;95.60;;;;;;5034352;28;20021;-67
2022/02/22 05:01:25;;;;;;;17.10;6.00;;;1.20;95.20;;;;;;5034565;28;20033;-67
2022/02/22 05:03:51;;;;;;;15.35;5.40;;;1.20;95.00;;;;;;5034807;28;20479;-67
2022/02/22 05:06:17;;;;;;;15.70;5.70;;;1.10;94.80;;;;;;5034699;28;20047;-68
2022/02/22 05:08:43;;;;;;;13.25;4.85;;;1.10;94.90;;;;;;5034564;28;20093;-68
2022/02/22 05:11:09;;;;;;;10.82;5.38;;;1.00;94.60;;;;;;5033139;28;20026;-69
2022/02/22 05:13:37;;;;;;;13.80;4.93;;;1.10;94.90;;;;;;5029576;28;20469;-68
2022/02/22 05:16:07;;;;;;;16.10;4.10;;;1.20;95.90;;;;;;5033865;28;20037;-68
2022/02/22 05:18:32;;;;;;;9.98;4.13;;;1.20;96.60;;;;;;5034079;28;20040;-67
2022/02/22 05:20:58;;;;;;;12.32;3.78;;;1.30;97.20;;;;;;5033408;28;20307;-68
2022/02/22 05:23:31;;;;;;;7.35;3.40;;;1.20;97.10;;;;;;5041825;28;20326;-67
2022/02/22 05:25:57;;;;;;;14.00;4.05;;;1.20;97.70;;;;;;5030575;28;20091;-67
2022/02/22 05:28:23;;;;;;;7.20;3.30;;;1.20;97.60;;;;;;5033884;28;20045;-68
2022/02/22 05:30:53;;;;;;;16.95;4.22;;;1.10;97.80;;;;;;5036627;28;20034;-67
2022/02/22 05:33:20;;;;;;;12.43;4.80;;;1.00;97.60;;;;;;5032820;28;20045;-67
2022/02/22 05:35:47;;;;;;;12.95;5.22;;;0.90;97.50;;;;;;5032630;28;20022;-68
2022/02/22 05:38:15;;;;;;;9.40;4.50;;;0.90;97.20;;;;;;5034843;28;20461;-67
2022/02/22 05:40:44;;;;;;;10.13;4.40;;;1.10;97.90;;;;;;5034655;28;20037;-68
2022/02/22 05:43:13;;;;;;;10.27;4.00;;;1.10;98.00;;;;;;5037920;28;20034;-67
2022/02/22 05:45:39;;;;;;;11.65;4.70;;;1.00;98.00;;;;;;5034603;28;20101;-68
2022/02/22 05:48:04;;;;;;;10.65;4.45;;;1.10;98.00;;;;;;5033675;28;20037;-68
2022/02/22 05:50:31;;;;;;;13.00;4.43;;;1.20;98.00;;;;;;5026892;28;20033;-67
2022/02/22 05:52:57;;;;;;;15.52;5.35;;;1.10;98.00;;;;;;5033278;28;20095;-67
2022/02/22 05:55:23;;;;;;;10.32;4.85;;;1.10;98.00;;;;;;5030556;28;20026;-68
2022/02/22 05:57:50;;;;;;;14.73;5.53;;;1.00;97.90;;;;;;5032790;28;20026;-67
2022/02/22 06:00:19;;;;;;;12.90;5.57;;;1.00;97.80;;;;;;5029970;28;20072;-67
2022/02/22 06:02:45;;;;;;;12.35;5.93;;;0.90;98.00;;;;;;5033160;28;20087;-67
2022/02/22 06:05:11;;;;;;;9.52;5.00;;;0.90;98.00;;;;;;5032775;28;20380;-66
2022/02/22 06:07:36;;;;;;;10.55;4.80;;;0.80;97.40;;;;;;5034851;28;20040;-67
2022/02/22 06:10:03;;;;;;;17.75;6.32;;;0.90;97.50;;;;;;5034427;28;20025;-66
2022/02/22 06:12:31;;;;;;;18.90;8.85;;;0.90;97.90;;;;;;5034883;28;20069;-68
2022/02/22 06:14:57;;;;;;;13.23;5.43;;;0.80;97.50;;;;;;5033974;28;20436;-68
2022/02/22 06:17:25;;;;;;;15.30;8.05;;;0.90;97.20;;;;;;5036826;28;20021;-68
2022/02/22 06:19:51;;;;;;;24.15;7.85;;;0.90;97.20;;;;;;5035443;28;20102;-68
2022/02/22 06:22:18;;;;;;;17.88;6.97;;;1.00;97.20;;;;;;5038258;28;20037;-67
2022/02/22 06:24:43;;;;;;;14.38;5.75;;;1.10;97.60;;;;;;5038279;28;20083;-68
2022/02/22 06:27:09;;;;;;;14.48;7.38;;;1.20;98.00;;;;;;5037522;28;20029;-68
2022/02/22 06:29:35;;;;;;;18.85;6.85;;;1.20;98.00;;;;;;5036551;28;20435;-67
2022/02/22 06:32:01;;;;;;;22.30;8.55;;;1.20;97.80;;;;;;5036330;28;20025;-68
2022/02/22 06:34:26;;;;;;;16.48;5.55;;;1.30;98.00;;;;;;5035982;28;20155;-67
2022/02/22 06:36:52;;;;;;;17.23;6.72;;;1.30;98.00;;;;;;5035065;28;20295;-69
2022/02/22 06:39:18;;;;;;;10.82;4.25;;;1.20;98.00;;;;;;5037161;28;20376;-67
2022/02/22 06:41:44;;;;;;;12.90;5.20;;;1.20;98.00;;;;;;5036683;28;20025;-67
2022/02/22 06:44:09;;;;;;;20.35;8.90;;;1.20;98.00;;;;;;5037227;28;20034;-67
2022/02/22 06:46:35;;;;;;;14.50;6.82;;;1.30;98.00;;;;;;5038420;28;20104;-67
2022/02/22 06:49:01;;;;;;;14.30;5.65;;;1.40;98.00;;;;;;5037966;28;20108;-67
2022/02/22 06:51:26;;;;;;;21.00;7.57;;;1.50;98.00;;;;;;5038192;28;20029;-67
2022/02/22 06:53:52;;;;;;;14.55;5.72;;;1.70;98.00;;;;;;5038268;28;20287;-67
2022/02/22 06:56:18;;;;;;;16.60;6.88;;;1.70;98.00;;;;;;5038320;28;20029;-67
2022/02/22 06:58:45;;;;;;;15.27;5.72;;;1.80;98.00;;;;;;5036987;28;20017;-67
2022/02/22 07:01:13;;;;;;;20.35;6.55;;;1.80;98.00;;;;;;5046044;28;20035;-67
2022/02/22 07:03:39;;;;;;;12.73;3.97;;;1.90;98.00;;;;;;5039173;28;20148;-68
2022/02/22 07:06:05;;;;;;;17.85;6.97;;;1.90;98.00;;;;;;5037349;28;20299;-68
2022/02/22 07:08:31;;;;;;;15.65;6.05;;;1.90;98.00;;;;;;5037219;28;20091;-67
2022/02/22 07:10:56;;;;;;;10.60;4.18;;;2.00;98.00;;;;;;5037929;28;20033;-67
2022/02/22 07:13:22;;;;;;;9.65;4.68;;;1.90;98.00;;;;;;5036041;28;20318;-68
2022/02/22 07:15:48;;;;;;;12.40;4.97;;;2.00;98.00;;;;;;5036523;28;20026;-67
2022/02/22 07:18:13;;;;;;;14.57;5.65;;;2.00;98.00;;;;;;5037594;28;20398;-67
2022/02/22 07:20:39;;;;;;;13.40;6.03;;;2.00;98.00;;;;;;5037702;28;20025;-69
2022/02/22 07:23:05;;;;;;;15.93;5.00;;;2.10;98.00;;;;;;5037196;28;20037;-68
2022/02/22 07:25:32;;;;;;;12.55;4.57;;;2.20;98.00;;;;;;5035694;28;20049;-69
2022/02/22 07:28:00;;;;;;;15.23;5.53;;;2.30;98.00;;;;;;5036376;28;20028;-69
2022/02/22 07:30:27;;;;;;;19.65;6.78;;;2.40;98.00;;;;;;5036054;28;20033;-68
2022/02/22 07:32:59;;;;;;;15.07;8.10;;;2.50;98.00;;;;;;5037739;28;20111;-68
2022/02/22 07:35:25;;;;;;;16.77;5.97;;;2.40;98.00;;;;;;5037052;28;20028;-68
2022/02/22 07:37:52;;;;;;;15.70;4.55;;;2.40;98.00;;;;;;5035871;28;20028;-68
2022/02/22 07:40:19;;;;;;;18.25;6.07;;;2.40;98.00;;;;;;5037190;28;20017;-68
2022/02/22 07:42:45;;;;;;;13.90;5.38;;;2.30;98.00;;;;;;5037158;28;20112;-67
2022/02/22 07:45:13;;;;;;;17.75;7.60;;;2.30;98.00;;;;;;5035933;28;20026;-67
2022/02/22 07:47:39;;;;;;;19.48;7.90;;;2.40;98.00;;;;;;5036465;28;20080;-67
2022/02/22 07:50:06;;;;;;;18.83;8.52;;;2.50;98.00;;;;;;5035710;28;20473;-67
2022/02/22 07:52:33;;;;;;;16.70;6.43;;;2.70;98.00;;;;;;5024837;28;20084;-68
2022/02/22 07:54:58;;;;;;;16.17;5.82;;;2.90;98.00;;;;;;5037066;28;20429;-68
2022/02/22 07:57:24;;;;;;;15.50;6.70;;;3.00;98.00;;;;;;5036911;28;20125;-67
2022/02/22 07:59:50;;;;;;;18.25;6.18;;;3.00;98.00;;;;;;5035937;28;20083;-67
2022/02/22 08:02:16;;;;;;;20.25;8.63;;;3.20;98.00;;;;;;5036984;28;20025;-68
2022/02/22 08:04:42;;;;;;;17.13;6.07;;;3.30;98.00;;;;;;5036888;28;20030;-67
2022/02/22 08:07:10;;;;;;;17.52;5.20;;;3.30;98.00;;;;;;5035945;28;20018;-67
2022/02/22 08:09:36;;;;;;;17.83;6.85;;;3.40;98.00;;;;;;5036557;28;20021;-68
2022/02/22 08:12:02;;;;;;;16.50;6.07;;;3.40;98.00;;;;;;5036768;28;20052;-68
2022/02/22 08:14:29;;;;;;;12.60;5.65;;;3.60;98.00;;;;;;5035133;28;20033;-68
2022/02/22 08:16:59;;;;;;;15.50;5.93;;;3.80;98.00;;;;;;5036788;28;20018;-68
2022/02/22 08:19:27;;;;;;;23.88;8.23;;;3.80;98.00;;;;;;5036515;28;20037;-67
2022/02/22 08:21:52;;;;;;;19.25;7.20;;;3.90;98.00;;;;;;5035431;28;20028;-68
2022/02/22 08:24:18;;;;;;;22.00;6.90;;;3.90;98.00;;;;;;5035109;28;20025;-67
2022/02/22 08:26:44;;;;;;;17.60;4.85;;;3.90;98.00;;;;;;5036418;28;20365;-68
2022/02/22 08:29:09;;;;;;;15.48;5.65;;;4.00;98.00;;;;;;5035250;28;20056;-68
2022/02/22 08:31:35;;;;;;;14.23;4.88;;;4.10;98.00;;;;;;5036478;28;20037;-67
2022/02/22 08:34:02;;;;;;;22.17;6.47;;;4.10;98.00;;;;;;5034879;28;20025;-68
2022/02/22 08:36:31;;;;;;;18.48;7.13;;;4.20;98.00;;;;;;5035394;28;20425;-68
2022/02/22 08:38:58;;;;;;;16.52;6.28;;;4.30;98.00;;;;;;5035705;28;20017;-68
2022/02/22 08:41:24;;;;;;;9.73;3.88;;;4.30;98.00;;;;;;5036327;28;20306;-67
2022/02/22 08:43:50;;;;;;;13.57;4.97;;;4.20;98.00;;;;;;5034385;28;20071;-67
2022/02/22 08:46:17;;;;;;;17.17;4.15;;;4.10;98.00;;;;;;5035663;28;20064;-67
2022/02/22 08:48:42;;;;;;;15.82;5.03;;;4.10;98.00;;;;;;5036022;28;20033;-68
2022/02/22 08:51:08;;;;;;;12.88;3.50;;;4.10;98.00;;;;;;5035883;28;20480;-68
2022/02/22 08:53:34;;;;;;;14.75;4.30;;;4.00;98.00;;;;;;5036197;28;20040;-68
2022/02/22 08:56:00;;;;;;;14.93;3.90;;;4.00;98.00;;;;;;5035240;28;20429;-68
2022/02/22 08:58:29;;;;;;;14.00;4.07;;;4.10;98.00;;;;;;5033638;28;20033;-66
2022/02/22 09:00:54;;;;;;;13.73;3.88;;;4.10;98.00;;;;;;5035948;28;20276;-67
2022/02/22 09:03:20;;;;;;;14.45;4.00;;;4.10;98.00;;;;;;5036180;28;20033;-67
2022/02/22 09:05:46;;;;;;;14.30;4.25;;;4.10;98.00;;;;;;5035642;28;20056;-66
2022/02/22 09:08:11;;;;;;;14.15;4.88;;;4.10;98.00;;;;;;5016247;28;20076;-69
2022/02/22 09:10:39;;;;;;;13.13;3.80;;;4.10;98.00;;;;;;5020085;28;20032;-71
2022/02/22 09:13:05;;;;;;;16.40;5.72;;;4.10;98.00;;;;;;5034090;28;20312;-68
2022/02/22 09:15:31;;;;;;;21.10;6.70;;;4.20;98.00;;;;;;5035033;28;20048;-68
2022/02/22 09:17:58;;;;;;;12.23;5.22;;;4.30;98.00;;;;;;5036027;28;20018;-68
2022/02/22 09:20:24;;;;;;;17.23;4.93;;;4.50;98.00;;;;;;5035615;28;20414;-68
2022/02/22 09:22:50;;;;;;;17.85;6.70;;;4.70;98.00;;;;;;5036020;28;20033;-68
2022/02/22 09:25:18;;;;;;;16.02;5.63;;;4.80;98.00;;;;;;5035547;28;20056;-68
2022/02/22 09:27:44;;;;;;;19.75;4.60;;;4.80;97.90;;;;;;5035193;28;20071;-68
2022/02/22 09:30:14;;;;;;;15.48;5.40;;;4.80;98.00;;;;;;5034844;28;20083;-67
2022/02/22 09:32:39;;;;;;;14.75;4.03;;;4.90;98.00;;;;;;5035626;28;20026;-67
2022/02/22 09:35:06;;;;;;;11.23;4.07;;;5.10;98.00;;;;;;5034710;28;20120;-68
2022/02/22 09:37:31;;;;;;;12.48;3.25;;;5.30;97.60;;;;;;5034817;28;20029;-68
2022/02/22 09:39:57;;;;;;;13.70;3.63;;;5.40;96.90;;;;;;5035401;28;20075;-67
2022/02/22 09:42:25;;;;;;;18.85;6.82;;;5.40;96.50;;;;;;5035285;28;20065;-67
2022/02/22 09:44:52;;;;;;;17.55;6.45;;;5.50;96.20;;;;;;5034558;28;20025;-67
2022/02/22 09:47:21;;;;;;;15.95;4.45;;;5.60;95.20;;;;;;5035085;28;20017;-68
2022/02/22 09:49:47;;;;;;;14.15;3.08;;;5.50;95.30;;;;;;5035713;28;20013;-67
2022/02/22 09:52:12;;;;;;;17.90;4.95;;;5.30;95.00;;;;;;5037128;28;20024;-67
2022/02/22 09:54:38;;;;;;;14.05;4.25;;;5.20;95.90;;;;;;5039431;28;20559;-68
2022/02/22 09:57:04;;;;;;;14.63;3.95;;;5.10;96.00;;;;;;5038881;28;20037;-67
2022/02/22 09:59:30;;;;;;;10.15;3.30;;;5.30;96.00;;;;;;5038259;28;20022;-67
2022/02/22 10:01:56;;;;;;;13.55;3.80;;;5.40;94.50;;;;;;5037925;28;20029;-67
2022/02/22 10:04:23;;;;;;;14.80;3.45;;;5.50;93.90;;;;;;5039262;28;20025;-69
2022/02/22 10:06:50;;;;;;;15.07;5.03;;;5.70;93.60;;;;;;5037912;28;20369;-68
2022/02/22 10:09:16;;;;;;;14.23;4.90;;;5.80;93.60;;;;;;5039202;28;20052;-69
2022/02/22 10:11:53;;;;;;;10.15;3.65;;;6.00;92.10;;;;;;5038664;28;20091;-67
2022/02/22 10:14:32;;;;;;;12.25;3.75;;;6.40;91.70;;;;;;5037708;28;20021;-67
2022/02/22 10:16:58;;;;;;;11.52;3.08;;;6.60;90.80;;;;;;5038855;28;20028;-67
2022/02/22 10:19:27;;;;;;;14.65;4.47;;;7.20;90.50;;;;;;5038645;28;20022;-68
2022/02/22 10:21:56;;;;;;;12.88;3.63;;;7.40;88.70;;;;;;5038607;28;20025;-67
2022/02/22 10:24:24;;;;;;;12.23;3.17;;;7.30;89.40;;;;;;5038494;28;20113;-67
2022/02/22 10:27:08;;;;;;;11.35;2.90;;;7.20;90.40;;;;;;5038855;28;20057;-68
2022/02/22 10:29:36;;;;;;;10.90;2.90;;;6.90;89.30;;;;;;5037511;28;20025;-67
2022/02/22 10:32:12;;;;;;;12.52;3.35;;;6.30;90.70;;;;;;5038480;28;20033;-67
2022/02/22 10:34:38;;;;;;;11.95;3.10;;;6.10;91.40;;;;;;5038423;28;20033;-67
2022/02/22 10:37:04;;;;;;;13.10;4.20;;;6.00;92.30;;;;;;5038385;28;20486;-67
2022/02/22 10:39:29;;;;;;;11.85;3.28;;;6.20;92.60;;;;;;5038484;28;20021;-68
2022/02/22 10:41:56;;;;;;;13.57;3.33;;;6.30;91.40;;;;;;5038224;28;20027;-68
2022/02/22 10:44:29;;;;;;;14.60;3.28;;;6.20;91.60;;;;;;5037384;28;20411;-68
2022/02/22 10:46:56;;;;;;;16.38;4.45;;;6.30;91.50;;;;;;5037794;28;20037;-68
2022/02/22 10:49:24;;;;;;;13.35;3.90;;;6.20;91.70;;;;;;5038584;28;20035;-69
2022/02/22 10:51:51;;;;;;;10.88;3.53;;;6.30;92.20;;;;;;5038153;28;20032;-68
2022/02/22 10:54:18;;;;;;;12.50;2.70;;;6.30;92.50;;;;;;5038405;28;20025;-68
2022/02/22 10:56:44;;;;;;;11.35;3.03;;;6.10;93.20;;;;;;5037994;28;20418;-68
2022/02/22 10:59:11;;;;;;;9.45;2.65;;;5.80;95.10;;;;;;5036883;28;20029;-68
2022/02/22 11:01:36;;;;;;;7.68;2.70;;;5.60;96.60;;;;;;5037742;28;20331;-68
2022/02/22 11:04:06;;;;;;;6.95;1.98;;;5.50;97.30;;;;;;5038144;28;20029;-68
2022/02/22 11:06:32;;;;;;;10.98;3.22;;;5.30;97.90;;;;;;5037710;28;20323;-68
2022/02/22 11:08:58;;;;;;;8.65;2.30;;;5.20;98.00;;;;;;5037239;28;20033;-68
2022/02/22 11:11:43;;;;;;;8.18;2.95;;;5.10;98.00;;;;;;5037586;28;20040;-68
2022/02/22 11:14:22;;;;;;;11.02;2.75;;;5.20;98.00;;;;;;5033929;28;20060;-67
2022/02/22 11:16:49;;;;;;;11.57;3.80;;;5.30;98.00;;;;;;5033191;28;20048;-68
2022/02/22 11:19:22;;;;;;;12.05;2.95;;;5.50;98.00;;;;;;5036528;28;20348;-68
2022/02/22 11:21:52;;;;;;;11.20;3.43;;;6.00;98.00;;;;;;5018135;28;20025;-68
2022/02/22 11:24:21;;;;;;;10.07;3.20;;;6.10;98.00;;;;;;5018190;28;20018;-68
2022/02/22 11:26:47;;;;;;;7.90;2.70;;;6.20;98.00;;;;;;5017675;28;20049;-67
2022/02/22 11:29:13;;;;;;;8.52;3.30;;;6.50;98.00;;;;;;5029321;28;20033;-67
2022/02/22 11:31:39;;;;;;;8.30;3.30;;;6.50;97.40;;;;;;5037880;28;20040;-67
2022/02/22 11:34:05;;;;;;;14.25;4.43;;;6.50;97.20;;;;;;5037189;28;20065;-67
2022/02/22 11:36:35;;;;;;;9.68;3.15;;;6.50;97.20;;;;;;5037589;28;20045;-67
2022/02/22 11:39:05;;;;;;;11.27;2.70;;;6.20;97.10;;;;;;5037510;28;20026;-67
2022/02/22 11:41:49;;;;;;;10.98;3.30;;;6.20;97.80;;;;;;5037481;28;20084;-67
2022/02/22 11:44:19;;;;;;;13.65;3.53;;;6.10;98.00;;;;;;5036019;28;20060;-67
2022/02/22 11:46:47;;;;;;;12.73;3.90;;;6.00;98.00;;;;;;5037417;28;20040;-67
2022/02/22 11:49:26;;;;;;;10.43;3.50;;;6.00;98.00;;;;;;5036167;28;20084;-67
2022/02/22 11:51:56;;;;;;;17.50;6.75;;;6.10;98.00;;;;;;5037409;28;20025;-67
2022/02/22 11:54:26;;;;;;;9.82;3.45;;;6.60;97.70;;;;;;5036942;28;20032;-66
2022/02/22 11:57:15;;;;;;;11.70;3.22;;;7.10;95.60;;;;;;5037147;28;20083;-66
2022/02/22 11:59:50;;;;;;;11.52;3.50;;;7.30;93.20;;;;;;5035354;28;20029;-66
2022/02/22 12:02:27;;;;;;;8.82;3.05;;;7.10;93.20;;;;;;5037164;28;20026;-67
2022/02/22 12:04:53;;;;;;;10.25;3.00;;;7.10;93.40;;;;;;5017247;28;20026;-67
2022/02/22 12:07:36;;;;;;;11.88;3.40;;;7.20;93.90;;;;;;5018414;28;20044;-67
2022/02/22 12:10:07;;;;;;;10.07;2.50;;;7.50;93.20;;;;;;5036856;28;20037;-67
2022/02/22 12:12:34;;;;;;;11.50;3.25;;;8.00;91.40;;;;;;5036666;28;20025;-67
2022/02/22 12:15:00;;;;;;;13.38;3.00;;;7.90;91.00;;;;;;5034961;28;20306;-67
2022/02/22 12:17:26;;;;;;;13.25;3.28;;;7.70;91.70;;;;;;5036563;28;20026;-66
2022/02/22 12:19:56;;;;;;;11.65;3.35;;;7.80;91.50;;;;;;5036306;28;20088;-67
2022/02/22 12:22:23;;;;;;;13.13;3.50;;;7.40;91.30;;;;;;5036834;28;20049;-67
2022/02/22 12:25:04;;;;;;;8.55;2.72;;;7.30;92.30;;;;;;5036237;28;20061;-66
2022/02/22 12:27:32;;;;;;;11.15;3.97;;;7.40;91.70;;;;;;5036016;28;20418;-67
2022/02/22 12:29:59;;;;;;;12.70;3.58;;;7.40;92.50;;;;;;5035118;28;20112;-67
2022/02/22 12:32:36;;;;;;;11.70;3.03;;;7.60;91.40;;;;;;5036169;28;20782;-67
2022/02/22 12:35:09;;;;;;;11.00;2.95;;;7.60;90.60;;;;;;5035999;28;20373;-66
2022/02/22 12:37:44;;;;;;;10.15;3.42;;;8.00;90.40;;;;;;5035987;28;20095;-67
2022/02/22 12:40:11;;;;;;;14.63;3.53;;;8.40;87.90;;;;;;5036484;28;20025;-67
2022/02/22 12:42:37;;;;;;;18.38;4.22;;;8.00;87.80;;;;;;5035916;28;20025;-68
2022/02/22 12:45:16;;;;;;;14.65;3.00;;;7.90;88.80;;;;;;5035347;28;20021;-66
2022/02/22 12:47:42;;;;;;;12.95;3.33;;;8.40;87.60;;;;;;5022497;28;20030;-67